CW6020 Teulada ES current weather conditions

sailwx.info

Wind from 315 at 1 knots gusting 3

Air temperature 14.4° C
Dewpoint 13.2° C

Last reported at 2016-Dec-08 08:46 UTC.
Time now 2016-Dec-08 09:50 UTC

Location: N 38°44' E 000°06'.
View on Google Maps.

See reports from other nearby stations

  
Tides and Currents Weather Stations Pressure Air Temp Water Temp Dewpoint Dewpoint Depression Visibility Wind Speed Wind Dir Waves Ship Positions
date/time (UTC)wind fromknots sea level pressurealtimeterstation pressurevisibilityair tempwater tempwave heightnotes
2016-Dec-08 08:46 315 1 gusting 3 14.4
2016-Dec-08 08:36 090 3 gusting 6 14.4
2016-Dec-08 08:26 045 1 gusting 5 13.9
2016-Dec-08 08:16 315 1 gusting 4 13.9
2016-Dec-08 08:06 112 1 gusting 5 13.9
2016-Dec-08 07:56 045 2 gusting 5 13.9
2016-Dec-08 07:46 045 1 gusting 4 13.9
2016-Dec-08 07:36 315 2 gusting 3 13.9
2016-Dec-08 07:26 337 2 gusting 6 13.9
2016-Dec-08 07:16 225 1 gusting 2 13.9
2016-Dec-08 07:06 315 1 gusting 2 13.9
2016-Dec-08 06:56 315 1 gusting 2 13.9
2016-Dec-08 06:46 090 2 gusting 2 13.9
2016-Dec-08 06:36 045 2 gusting 4 13.9
2016-Dec-08 06:26 045 2 gusting 4 13.9
2016-Dec-08 06:16 13.9
2016-Dec-08 06:06 180 1 gusting 2 13.9
2016-Dec-08 05:56 090 2 gusting 5 13.9
2016-Dec-08 05:46 180 2 gusting 5 13.9
2016-Dec-08 05:36 090 2 gusting 2 13.9
2016-Dec-08 05:26 270 2 gusting 4 13.9
2016-Dec-08 05:16 202 2 gusting 5 13.9
2016-Dec-08 05:06 045 2 gusting 6 13.9
2016-Dec-08 04:56 045 2 gusting 4 13.9
2016-Dec-08 04:46 225 2 gusting 5 13.9
2016-Dec-08 04:36 090 4 gusting 7 13.9
2016-Dec-08 04:26 315 0 gusting 1 13.9
2016-Dec-08 04:16 13.9
2016-Dec-08 04:06 315 1 gusting 2 13.9
2016-Dec-08 03:56 13.9
2016-Dec-08 03:46 045 1 gusting 2 13.9
2016-Dec-08 03:36 270 0 gusting 2 13.9
2016-Dec-08 03:26 090 1 gusting 2 13.9
2016-Dec-08 03:16 270 1 gusting 2 13.3
2016-Dec-08 03:06 135 1 gusting 3 13.3
2016-Dec-08 02:56 315 2 gusting 4 13.3
2016-Dec-08 02:46 270 0 gusting 2 13.3
2016-Dec-08 02:36 315 2 gusting 3 13.3
2016-Dec-08 02:26 270 13.3
2016-Dec-08 02:16 270 0 gusting 2 13.3
2016-Dec-08 02:06 270 0 gusting 1 13.3
2016-Dec-08 01:56 13.3
2016-Dec-08 01:46 13.3
2016-Dec-08 01:36 270 2 gusting 4 13.3
2016-Dec-08 01:26 270 0 gusting 2 13.3
2016-Dec-08 01:16 112 0 gusting 1 12.8
2016-Dec-08 01:06 270 1 gusting 2 12.8
2016-Dec-08 00:56 315 12.8
2016-Dec-08 00:46 315 1 gusting 2 12.8
2016-Dec-08 00:36 315 0 gusting 1 12.8
2016-Dec-08 00:26 045 12.8
2016-Dec-08 00:16 337 1 gusting 3 12.8
2016-Dec-08 00:06 180 12.8
2016-Dec-07 23:56 12.8
2016-Dec-07 23:46 045 12.8
2016-Dec-07 23:36 090 1 gusting 2 12.8
2016-Dec-07 23:26 090 1 gusting 3 12.8
2016-Dec-07 23:16 090 0 gusting 2 12.2
2016-Dec-07 23:06 12.2
2016-Dec-07 22:56 12.2
2016-Dec-07 22:46 12.8
2016-Dec-07 22:36 090 0 gusting 1 12.8
2016-Dec-07 22:26 315 12.8
2016-Dec-07 22:16 090 0 gusting 1 12.8
2016-Dec-07 22:06 292 1 gusting 2 12.8
2016-Dec-07 21:56 045 0 gusting 2 12.8
2016-Dec-07 21:46 090 1 gusting 3 12.8
2016-Dec-07 21:36 315 0 gusting 1 12.8
2016-Dec-07 21:26 270 12.8
2016-Dec-07 21:16 315 0 gusting 1 12.8
2016-Dec-07 21:06 225 1 gusting 5 12.8
2016-Dec-07 20:56 315 0 gusting 2 12.8
2016-Dec-07 20:46 13.3
2016-Dec-07 20:36 090 1 gusting 2 13.3
2016-Dec-07 20:26 090 1 gusting 3 13.3
2016-Dec-07 20:16 045 1 gusting 5 13.3
2016-Dec-07 20:06 045 2 gusting 3 13.3
2016-Dec-07 19:56 225 1 gusting 3 13.3
2016-Dec-07 19:46 13.3
2016-Dec-07 19:36 13.3
2016-Dec-07 19:26 135 1 gusting 2 13.3
2016-Dec-07 19:16 315 2 gusting 5 13.3
2016-Dec-07 19:06 045 13.3
2016-Dec-07 18:56 13.3
2016-Dec-07 18:46 090 0 gusting 2 12.8
2016-Dec-07 18:16 180 0 gusting 2 12.8
2016-Dec-07 17:56 292 2 gusting 5 12.8
2016-Dec-07 17:46 180 12.8
2016-Dec-07 17:26 045 2 gusting 3 13.3
2016-Dec-07 17:06 135 2 gusting 5 13.3
2016-Dec-07 16:56 225 1 gusting 3 13.3
2016-Dec-07 16:46 13.9
2016-Dec-07 16:36 090 2 gusting 5 13.9
2016-Dec-07 16:26 315 1 gusting 3 13.9
2016-Dec-07 16:16 270 0 gusting 2 14.4
2016-Dec-07 16:07 270 2 gusting 5 14.4
2016-Dec-07 15:56 270 0 gusting 2 14.4
2016-Dec-07 15:41 090 4 gusting 9 15.0
2016-Dec-07 15:31 045 2 gusting 3 15.0
2016-Dec-07 15:11 315 0 gusting 2 15.6
2016-Dec-07 15:00 090 15.6
2016-Dec-07 14:51 315 2 gusting 4 15.6
2016-Dec-07 14:41 270 0 gusting 1 15.6
2016-Dec-07 14:31 270 15.6
2016-Dec-07 14:21 15.6
2016-Dec-07 14:11 090 15.6
2016-Dec-07 14:01 15.0
2016-Dec-07 13:51 270 2 gusting 5 15.0
2016-Dec-07 13:41 180 1 gusting 2 15.0
2016-Dec-07 13:31 315 0 gusting 1 15.0
2016-Dec-07 13:21 270 1 gusting 2 15.6
2016-Dec-07 13:11 15.6
2016-Dec-07 13:01 315 0 gusting 2 15.6
2016-Dec-07 12:51 15.6
2016-Dec-07 12:41 090 0 gusting 2 15.6
2016-Dec-07 12:31 315 2 gusting 6 15.6
2016-Dec-07 12:21 292 15.6
2016-Dec-07 12:11 315 15.6
2016-Dec-07 12:00 225 0 gusting 2 15.6
2016-Dec-07 11:41 090 1 gusting 2 15.6
2016-Dec-07 11:31 225 2 gusting 3 16.1
2016-Dec-07 11:21 315 2 gusting 5 16.1
2016-Dec-07 11:11 270 2 gusting 6 16.1
2016-Dec-07 11:01 090 15.6
2016-Dec-07 10:51 315 2 gusting 5 16.1
2016-Dec-07 10:40 16.1
2016-Dec-07 10:21 15.6
2016-Dec-07 10:01 315 0 gusting 2 15.0
2016-Dec-07 09:51 270 2 gusting 4 15.6
2016-Dec-07 09:41 15.6
2016-Dec-07 09:31 15.0
2016-Dec-07 09:21 180 1 gusting 2 15.0
2016-Dec-07 09:11 15.0
2016-Dec-07 09:01 315 0 gusting 1 14.4
2016-Dec-07 08:51 135 1 gusting 3 14.4
2016-Dec-07 08:31 315 0 gusting 1 13.9
2016-Dec-07 08:21 13.3
2016-Dec-07 08:11 292 2 gusting 4 12.8
2016-Dec-07 07:51 12.8
2016-Dec-07 07:41 292 1 gusting 2 12.2
2016-Dec-07 07:31 12.2
2016-Dec-07 07:21 315 0 gusting 2 12.2
2016-Dec-07 07:11 270 0 gusting 2 12.2
2016-Dec-07 07:01 12.2
2016-Dec-07 06:41 045 12.2
2016-Dec-07 06:31 315 1 gusting 2 12.8
2016-Dec-07 06:21 270 12.8
2016-Dec-07 05:51 292 1 gusting 4 12.8
2016-Dec-07 05:41 045 0 gusting 2 12.8
2016-Dec-07 05:31 12.8
2016-Dec-07 05:11 315 2 gusting 5 12.8
2016-Dec-07 05:01 045 1 gusting 2 12.8
2016-Dec-07 04:51 045 0 gusting 2 12.8
2016-Dec-07 04:11 12.8
2016-Dec-07 03:51 12.8
2016-Dec-07 03:41 315 12.8
2016-Dec-07 03:31 12.8
2016-Dec-07 03:21 12.8
2016-Dec-07 03:11 045 0 gusting 1 12.8
2016-Dec-07 02:41 045 0 gusting 2 12.8
2016-Dec-07 02:39 045 0 gusting 2 12.8
2016-Dec-07 02:21 12.8
2016-Dec-07 02:11 315 1 gusting 3 12.8
2016-Dec-07 02:01 315 3 gusting 5 12.8
2016-Dec-07 01:51 315 0 gusting 1 12.8
2016-Dec-07 01:41 045 0 gusting 2 12.8
2016-Dec-07 01:31 12.8
2016-Dec-07 01:21 315 0 gusting 1 12.8
2016-Dec-07 01:11 135 3 gusting 7 12.8
2016-Dec-07 01:01 12.8
2016-Dec-07 00:41 337 0 gusting 1 13.3
2016-Dec-07 00:31 13.3
2016-Dec-07 00:21 13.3
2016-Dec-07 00:11 270 0 gusting 2 13.3
2016-Dec-06 23:51 315 2 gusting 4 13.3
2016-Dec-06 23:41 225 0 gusting 2 13.3
2016-Dec-06 23:31 270 1 gusting 4 13.3
2016-Dec-06 23:11 315 13.3
2016-Dec-06 22:51 13.3
2016-Dec-06 22:41 13.3
2016-Dec-06 22:20 315 1 gusting 3 13.3
2016-Dec-06 22:11 315 0 gusting 2 13.3
2016-Dec-06 22:00 13.3
2016-Dec-06 21:51 090 1 gusting 2 13.3
2016-Dec-06 21:41 315 2 gusting 6 13.3
2016-Dec-06 21:31 315 5 gusting 9 13.3
2016-Dec-06 21:20 315 2 gusting 4 13.3
2016-Dec-06 21:01 292 2 gusting 4 13.3
2016-Dec-06 20:41 045 1 gusting 5 13.3
2016-Dec-06 20:20 090 0 gusting 1 13.3
2016-Dec-06 20:11 337 13.3
2016-Dec-06 20:01 090 13.9
2016-Dec-06 19:51 13.9
2016-Dec-06 19:20 13.9
2016-Dec-06 19:11 292 2 gusting 4 13.9
2016-Dec-06 19:01 315 0 gusting 3 13.9
2016-Dec-06 18:51 13.9
2016-Dec-06 18:41 315 1 gusting 3 13.9
2016-Dec-06 18:31 045 1 gusting 3 13.9
2016-Dec-06 18:20 090 1 gusting 4 13.9
2016-Dec-06 18:11 270 1 gusting 3 14.4
2016-Dec-06 18:01 090 1 gusting 4 14.4
2016-Dec-06 17:51 135 2 gusting 5 14.4
2016-Dec-06 17:41 090 2 gusting 3 14.4
2016-Dec-06 17:31 090 1 gusting 2 14.4
2016-Dec-06 17:21 315 2 gusting 5 14.4
2016-Dec-06 17:11 090 1 gusting 3 14.4
2016-Dec-06 17:00 045 2 gusting 5 14.4
2016-Dec-06 16:51 090 1 gusting 3 14.4
2016-Dec-06 16:41 14.4
2016-Dec-06 16:31 090 2 gusting 4 14.4
2016-Dec-06 16:21 315 2 gusting 5 14.4
2016-Dec-06 15:51 067 2 gusting 6 14.4
2016-Dec-06 15:44 045 4 gusting 6 14.4
2016-Dec-06 15:31 315 0 gusting 2 14.4
2016-Dec-06 15:11 270 2 gusting 5 14.4
2016-Dec-06 15:01 180 2 gusting 5 14.4
2016-Dec-06 14:51 337 3 gusting 6 14.4
2016-Dec-06 14:31 180 1 gusting 3 14.4
2016-Dec-06 14:21 090 2 gusting 4 14.4
2016-Dec-06 14:11 135 3 gusting 5 14.4
2016-Dec-06 14:01 090 2 gusting 5 14.4
2016-Dec-06 13:41 090 5 gusting 6 14.4
2016-Dec-06 13:31 135 1 gusting 4 14.4
2016-Dec-06 13:21 315 2 gusting 5 14.4
2016-Dec-06 13:11 247 2 gusting 2 14.4
2016-Dec-06 12:51 045 5 gusting 9 15.0
2016-Dec-06 12:41 090 3 gusting 5 15.0
2016-Dec-06 12:31 090 0 gusting 2 15.0
2016-Dec-06 12:21 135 2 gusting 5 15.0
2016-Dec-06 12:11 315 2 gusting 7 15.0
2016-Dec-06 12:01 337 2 gusting 5 15.0
2016-Dec-06 11:51 225 6 gusting 10 15.0
2016-Dec-06 11:41 315 2 gusting 3 15.0
2016-Dec-06 11:31 135 5 gusting 8 15.0
2016-Dec-06 11:21 270 4 gusting 9 15.0
2016-Dec-06 11:11 067 4 gusting 8 15.0
2016-Dec-06 11:01 135 2 gusting 5 15.0
2016-Dec-06 10:51 180 0 gusting 2 15.0
2016-Dec-06 10:41 090 3 gusting 5 15.0
2016-Dec-06 10:31 315 0 gusting 2 15.0
2016-Dec-06 10:21 090 2 gusting 5 15.0
2016-Dec-06 10:11 315 1 gusting 2 15.0
2016-Dec-06 10:01 180 6 gusting 10 14.4
2016-Dec-06 09:51 270 2 gusting 6 14.4
2016-Dec-06 09:41 090 1 gusting 2 14.4
2016-Dec-06 09:31 045 2 gusting 3 14.4
2016-Dec-06 09:21 090 4 gusting 8 14.4
2016-Dec-06 09:01 315 1 gusting 3 15.0